Time;durP1;ratioP1;P1;durP2;ratioP2;P2;SDS_P1;SDS_P2;PMS_P1;PMS_P2;Temp;Humidity;BMP_temperature;BMP_pressure;BME280_temperature;BME280_humidity;BME280_pressure;Samples;Min_cycle;Max_cycle;Signal;HPM_P1;HPM_P2
2022/10/02 00:01:49;;;;;;;6.33;1.53;;;15.60;99.90;;;;;;5035492;28;20210;-60
2022/10/02 00:04:21;;;;;;;5.83;1.73;;;15.70;99.90;;;;;;5035323;28;20226;-59
2022/10/02 00:06:53;;;;;;;4.97;1.50;;;15.70;99.90;;;;;;5034772;28;20226;-60
2022/10/02 00:09:26;;;;;;;5.23;1.63;;;15.70;99.90;;;;;;5034702;28;20693;-60
2022/10/02 00:11:56;;;;;;;4.80;1.40;;;15.70;99.90;;;;;;5034336;28;20214;-60
2022/10/02 00:14:26;;;;;;;4.40;1.53;;;15.80;99.90;;;;;;5034655;28;20234;-59
2022/10/02 00:16:56;;;;;;;5.33;1.70;;;15.80;99.90;;;;;;5034689;28;20305;-61
2022/10/02 00:19:23;;;;;;;7.97;1.93;;;15.80;99.90;;;;;;5034532;28;20207;-60
2022/10/02 00:22:22;;;;;;;5.90;1.70;;;15.80;99.90;;;;;;5033779;28;20682;-60
2022/10/02 00:24:57;;;;;;;6.77;1.70;;;15.70;99.90;;;;;;5034387;28;20226;-60
2022/10/02 00:27:37;;;;;;;5.40;2.03;;;15.80;99.90;;;;;;5034468;28;20221;-60
2022/10/02 00:30:06;;;;;;;5.20;1.40;;;15.80;99.90;;;;;;5034291;28;20214;-60
2022/10/02 00:32:37;;;;;;;4.57;1.83;;;15.90;99.90;;;;;;5033815;28;20210;-60
2022/10/02 00:35:31;;;;;;;6.20;2.07;;;15.90;99.90;;;;;;5034063;28;20226;-60
2022/10/02 00:38:08;;;;;;;6.00;1.90;;;15.90;99.90;;;;;;5034064;28;20225;-60
2022/10/02 00:40:49;;;;;;;6.97;1.87;;;16.00;99.90;;;;;;5034055;28;20210;-60
2022/10/02 00:43:26;;;;;;;5.40;2.20;;;16.00;99.90;;;;;;5034174;28;20222;-60
2022/10/02 00:46:13;;;;;;;7.53;3.17;;;16.00;99.90;;;;;;5033986;28;20209;-60
2022/10/02 00:48:51;;;;;;;6.95;1.63;;;15.90;99.90;;;;;;5033873;28;20214;-60
2022/10/02 00:51:47;;;;;;;4.50;1.70;;;15.90;99.90;;;;;;5033771;28;20214;-60
2022/10/02 00:54:44;;;;;;;3.70;1.37;;;16.00;99.90;;;;;;5033313;28;20240;-59
2022/10/02 00:57:20;;;;;;;4.03;1.60;;;15.90;99.90;;;;;;5033718;28;20206;-61
2022/10/02 01:00:00;;;;;;;7.13;1.90;;;15.90;99.90;;;;;;5033971;28;20209;-60
2022/10/02 01:02:48;;;;;;;6.83;1.90;;;15.80;99.90;;;;;;5033338;28;20221;-60
2022/10/02 01:05:15;;;;;;;4.90;2.00;;;15.80;99.90;;;;;;5033497;28;20289;-60
2022/10/02 01:07:46;;;;;;;5.27;1.77;;;15.80;99.90;;;;;;5033686;28;20218;-61
2022/10/02 01:10:15;;;;;;;6.87;2.00;;;15.80;99.90;;;;;;5033842;28;20709;-60
2022/10/02 01:12:42;;;;;;;5.33;1.60;;;15.90;99.90;;;;;;5033960;28;20593;-60
2022/10/02 01:15:13;;;;;;;5.00;1.70;;;16.00;99.90;;;;;;5048100;22;20222;-58
2022/10/02 01:17:40;;;;;;;6.07;1.70;;;16.00;99.90;;;;;;5032659;28;20198;-59
2022/10/02 01:20:12;;;;;;;5.70;1.80;;;16.00;99.90;;;;;;5032619;28;20210;-59
2022/10/02 01:22:45;;;;;;;4.40;1.47;;;16.00;99.90;;;;;;5032117;28;20210;-58
2022/10/02 01:25:13;;;;;;;6.73;1.57;;;15.90;99.90;;;;;;5032869;28;20253;-59
2022/10/02 01:27:40;;;;;;;6.67;1.80;;;15.80;99.90;;;;;;5032525;28;20233;-59
2022/10/02 01:30:10;;;;;;;5.43;1.57;;;15.70;99.90;;;;;;5032511;28;20214;-58
2022/10/02 01:32:43;;;;;;;5.07;1.20;;;15.70;99.90;;;;;;5032043;28;20793;-59
2022/10/02 01:35:10;;;;;;;5.30;1.70;;;15.70;99.90;;;;;;5032530;28;20229;-59
2022/10/02 01:37:40;;;;;;;6.57;2.03;;;15.70;99.90;;;;;;5032506;28;20225;-59
2022/10/02 01:40:09;;;;;;;5.80;1.40;;;15.70;99.90;;;;;;5032849;28;20219;-58
2022/10/02 01:42:38;;;;;;;6.00;2.00;;;15.70;99.90;;;;;;5031700;28;20202;-60
2022/10/02 01:45:08;;;;;;;7.40;1.70;;;15.80;99.90;;;;;;5032096;28;20226;-59
2022/10/02 01:47:43;;;;;;;4.30;1.73;;;15.70;99.90;;;;;;5032288;28;20233;-59
2022/10/02 01:50:17;;;;;;;5.90;1.70;;;15.70;99.90;;;;;;5032492;28;20216;-59
2022/10/02 01:52:50;;;;;;;7.50;1.50;;;15.60;99.90;;;;;;5031831;28;20238;-61
2022/10/02 01:55:34;;;;;;;4.63;1.63;;;15.60;99.90;;;;;;5032438;28;20230;-59
2022/10/02 01:58:16;;;;;;;5.80;1.60;;;15.70;99.90;;;;;;5032306;28;20213;-59
2022/10/02 02:01:00;;;;;;;8.17;1.83;;;15.80;99.90;;;;;;5032290;28;20210;-59
2022/10/02 02:03:38;;;;;;;4.53;1.60;;;15.80;99.90;;;;;;5032026;28;20590;-60
2022/10/02 02:06:11;;;;;;;5.27;1.50;;;15.80;99.90;;;;;;5031530;28;20210;-60
2022/10/02 02:08:47;;;;;;;5.88;1.90;;;15.80;99.90;;;;;;5032178;28;20226;-60
2022/10/02 02:11:16;;;;;;;6.50;1.60;;;15.80;99.90;;;;;;5031529;28;20248;-59
2022/10/02 02:13:51;;;;;;;8.80;1.60;;;15.70;99.90;;;;;;5031767;28;20230;-59
2022/10/02 02:16:24;;;;;;;3.10;1.20;;;15.70;99.90;;;;;;5031669;28;20206;-60
2022/10/02 02:18:59;;;;;;;5.33;1.70;;;15.80;99.90;;;;;;5031994;28;20217;-59
2022/10/02 02:21:30;;;;;;;7.10;1.47;;;15.70;99.90;;;;;;5031490;28;20563;-60
2022/10/02 02:24:01;;;;;;;3.87;1.43;;;15.70;99.90;;;;;;5031890;28;20253;-59
2022/10/02 02:26:30;;;;;;;5.73;1.87;;;15.60;99.90;;;;;;5031922;28;20210;-59
2022/10/02 02:29:03;;;;;;;8.10;1.50;;;15.70;99.90;;;;;;5032133;28;20589;-59
2022/10/02 02:31:36;;;;;;;4.93;1.80;;;15.60;99.90;;;;;;5031454;28;20221;-59
2022/10/02 02:34:07;;;;;;;5.73;1.40;;;15.60;99.90;;;;;;5031778;28;20222;-59
2022/10/02 02:36:38;;;;;;;4.57;1.47;;;15.70;99.90;;;;;;5031557;28;20221;-59
2022/10/02 02:39:09;;;;;;;4.50;1.53;;;15.70;99.90;;;;;;5031728;28;20210;-59
2022/10/02 02:41:41;;;;;;;5.53;1.47;;;15.70;99.90;;;;;;5031315;28;20209;-59
2022/10/02 02:44:15;;;;;;;4.63;1.60;;;15.80;99.90;;;;;;5031814;28;20255;-59
2022/10/02 02:47:06;;;;;;;3.97;1.60;;;15.90;99.90;;;;;;5031380;28;20719;-60
2022/10/02 02:49:40;;;;;;;6.50;2.00;;;15.90;99.90;;;;;;5031524;28;20234;-60
2022/10/02 02:52:12;;;;;;;5.07;1.53;;;15.90;99.90;;;;;;5031046;28;20213;-59
2022/10/02 02:54:43;;;;;;;5.78;1.75;;;15.90;99.90;;;;;;5031710;28;20230;-60
2022/10/02 02:57:12;;;;;;;8.37;1.47;;;16.00;99.90;;;;;;5031406;28;20210;-59
2022/10/02 02:59:42;;;;;;;6.22;1.40;;;15.90;99.90;;;;;;5031475;28;20472;-60
2022/10/02 03:02:09;;;;;;;7.93;2.03;;;16.00;99.90;;;;;;5030836;28;20769;-61
2022/10/02 03:04:36;;;;;;;4.82;1.50;;;16.00;99.90;;;;;;5031657;28;20226;-61
2022/10/02 03:07:04;;;;;;;6.03;1.80;;;15.90;99.90;;;;;;5031606;28;20260;-61
2022/10/02 03:09:33;;;;;;;5.27;1.77;;;15.80;99.90;;;;;;5031565;28;20230;-61
2022/10/02 03:12:12;;;;;;;6.73;2.23;;;15.70;99.90;;;;;;5031050;28;20222;-61
2022/10/02 03:15:03;;;;;;;3.90;1.90;;;15.70;99.90;;;;;;5031507;28;20234;-61
2022/10/02 03:17:44;;;;;;;5.90;1.75;;;15.70;99.90;;;;;;5033229;28;20210;-61
2022/10/02 03:20:16;;;;;;;5.78;1.90;;;15.80;99.90;;;;;;5035212;28;20214;-61
2022/10/02 03:22:50;;;;;;;3.97;1.30;;;15.70;99.90;;;;;;5034426;28;20225;-61
2022/10/02 03:25:24;;;;;;;3.87;1.30;;;15.80;99.90;;;;;;5034972;28;20234;-61
2022/10/02 03:27:56;;;;;;;5.20;1.50;;;15.80;99.90;;;;;;5035068;28;20321;-61
2022/10/02 03:30:24;;;;;;;5.80;1.57;;;15.90;99.90;;;;;;5034900;28;20206;-61
2022/10/02 03:32:52;;;;;;;4.27;1.27;;;15.90;99.90;;;;;;5034513;28;20208;-61
2022/10/02 03:35:20;;;;;;;6.83;1.50;;;15.90;99.90;;;;;;5034727;28;20254;-61
2022/10/02 03:37:50;;;;;;;5.03;1.25;;;15.90;99.90;;;;;;5034620;28;20209;-61
2022/10/02 03:40:16;;;;;;;3.65;1.42;;;15.90;99.90;;;;;;5034673;28;20234;-61
2022/10/02 03:42:43;;;;;;;3.50;1.37;;;15.90;99.90;;;;;;5034145;28;20207;-61
2022/10/02 03:45:10;;;;;;;6.80;1.70;;;15.90;99.90;;;;;;5034515;28;20738;-61
2022/10/02 03:47:38;;;;;;;7.43;1.80;;;16.00;99.90;;;;;;5034497;28;20228;-61
2022/10/02 03:50:06;;;;;;;6.30;1.83;;;16.00;99.90;;;;;;5034418;28;20217;-61
2022/10/02 03:52:35;;;;;;;8.33;1.50;;;16.00;99.90;;;;;;5033780;28;20210;-61
2022/10/02 03:55:04;;;;;;;4.68;1.80;;;16.00;99.90;;;;;;5034395;28;20309;-61
2022/10/02 03:57:34;;;;;;;10.83;1.90;;;16.00;99.90;;;;;;5034380;28;20213;-59
2022/10/02 04:00:04;;;;;;;5.27;1.73;;;16.00;99.90;;;;;;5034233;28;20242;-60
2022/10/02 04:02:35;;;;;;;8.40;2.10;;;16.00;99.90;;;;;;5033685;28;20222;-59
2022/10/02 04:05:11;;;;;;;8.20;2.40;;;16.10;99.90;;;;;;5035201;28;20234;-61
2022/10/02 04:07:41;;;;;;;7.73;2.00;;;16.10;99.90;;;;;;5034927;28;20244;-58
2022/10/02 04:10:28;;;;;;;9.20;2.00;;;16.10;99.90;;;;;;5034446;28;20573;-60
2022/10/02 04:13:02;;;;;;;6.37;1.53;;;16.10;99.90;;;;;;5033505;28;20202;-60
2022/10/02 04:15:35;;;;;;;7.37;2.30;;;16.20;99.90;;;;;;5034037;28;20245;-61
2022/10/02 04:18:07;;;;;;;5.95;1.73;;;16.10;99.90;;;;;;5033925;28;20213;-60
2022/10/02 04:20:43;;;;;;;8.03;1.90;;;16.20;99.90;;;;;;5033996;28;20206;-60
2022/10/02 04:23:17;;;;;;;5.50;1.92;;;16.20;99.90;;;;;;5033434;28;20336;-59
2022/10/02 04:25:49;;;;;;;9.53;2.13;;;16.00;99.90;;;;;;5034491;28;20244;-60
2022/10/02 04:28:21;;;;;;;4.85;1.60;;;16.00;99.90;;;;;;5033653;28;20242;-58
2022/10/02 04:30:48;;;;;;;6.70;1.65;;;15.90;99.90;;;;;;5035087;28;20202;-60
2022/10/02 04:33:18;;;;;;;4.23;2.60;;;15.90;99.90;;;;;;5033731;28;20213;-60
2022/10/02 04:35:56;;;;;;;5.83;1.60;;;16.00;99.90;;;;;;5034037;28;20583;-60
2022/10/02 04:38:37;;;;;;;6.40;1.83;;;15.90;99.90;;;;;;5033665;28;20681;-60
2022/10/02 04:41:17;;;;;;;6.67;1.97;;;15.90;99.90;;;;;;5033635;28;20213;-60
2022/10/02 04:43:58;;;;;;;5.33;1.87;;;15.90;99.90;;;;;;5033437;28;20233;-60
2022/10/02 04:46:44;;;;;;;6.43;1.77;;;15.90;99.90;;;;;;5033257;28;20206;-61
2022/10/02 04:49:33;;;;;;;7.77;1.60;;;15.90;99.90;;;;;;5033427;28;20238;-60
2022/10/02 04:52:19;;;;;;;6.13;1.80;;;15.90;99.90;;;;;;5032887;28;20203;-60
2022/10/02 04:55:14;;;;;;;6.20;1.70;;;15.90;99.90;;;;;;5033176;28;20230;-60
2022/10/02 04:58:03;;;;;;;5.47;1.77;;;15.80;99.90;;;;;;5033513;28;20583;-60
2022/10/02 05:00:36;;;;;;;7.43;1.83;;;15.80;99.90;;;;;;5033376;28;20210;-60
2022/10/02 05:03:20;;;;;;;5.67;1.53;;;15.70;99.90;;;;;;5032417;28;20214;-60
2022/10/02 05:06:10;;;;;;;9.10;1.90;;;15.70;99.90;;;;;;5033112;28;20217;-60
2022/10/02 05:08:56;;;;;;;8.30;2.13;;;15.70;99.90;;;;;;5032748;28;20226;-60
2022/10/02 05:11:46;;;;;;;5.77;2.07;;;15.80;99.90;;;;;;5032031;28;20210;-60
2022/10/02 05:14:32;;;;;;;5.67;1.77;;;15.80;99.90;;;;;;5003539;28;20256;-60
2022/10/02 05:17:18;;;;;;;5.13;1.60;;;15.80;99.90;;;;;;5032873;28;20213;-60
2022/10/02 05:19:59;;;;;;;4.00;1.73;;;15.90;99.90;;;;;;5032833;28;20237;-60
2022/10/02 05:22:45;;;;;;;6.07;1.80;;;15.90;99.90;;;;;;5032187;28;20542;-60
2022/10/02 05:25:28;;;;;;;6.68;1.70;;;15.90;99.90;;;;;;5032752;28;20226;-60
2022/10/02 05:28:09;;;;;;;4.20;1.60;;;15.90;99.90;;;;;;5032488;28;20232;-60
2022/10/02 05:30:45;;;;;;;4.90;2.20;;;16.00;99.90;;;;;;5032785;28;20206;-60
2022/10/02 05:33:32;;;;;;;4.63;1.57;;;15.90;99.90;;;;;;5032072;28;20214;-60
2022/10/02 05:36:17;;;;;;;7.10;1.50;;;15.80;99.90;;;;;;5032530;28;20685;-61
2022/10/02 05:39:02;;;;;;;5.50;2.13;;;15.90;99.90;;;;;;5032744;28;20202;-60
2022/10/02 05:41:39;;;;;;;5.30;1.87;;;15.90;99.90;;;;;;5032216;28;20218;-61
2022/10/02 05:44:11;;;;;;;6.47;1.90;;;15.80;99.90;;;;;;5032390;28;20291;-61
2022/10/02 05:46:43;;;;;;;7.40;2.07;;;15.90;99.90;;;;;;5032324;28;20221;-61
2022/10/02 05:49:16;;;;;;;6.37;1.90;;;16.00;99.90;;;;;;5032473;28;20230;-61
2022/10/02 05:51:52;;;;;;;5.47;1.80;;;16.00;99.90;;;;;;5031760;28;20206;-61
2022/10/02 05:54:27;;;;;;;4.53;1.53;;;15.90;99.90;;;;;;5032233;28;20705;-61
2022/10/02 05:57:02;;;;;;;11.00;3.60;;;15.90;99.90;;;;;;5032056;28;20201;-61
2022/10/02 05:59:36;;;;;;;7.73;2.10;;;15.90;99.90;;;;;;5032407;28;20205;-61
2022/10/02 06:02:11;;;;;;;13.87;5.93;;;15.90;99.90;;;;;;5031664;28;20228;-61
2022/10/02 06:04:43;;;;;;;6.88;2.38;;;15.80;99.90;;;;;;5032122;28;20233;-61
2022/10/02 06:07:14;;;;;;;13.07;7.40;;;15.90;99.90;;;;;;5032044;28;20256;-61
2022/10/02 06:09:47;;;;;;;6.97;3.00;;;15.90;99.90;;;;;;5031904;28;20249;-60
2022/10/02 06:12:21;;;;;;;7.95;2.97;;;15.90;99.90;;;;;;5031591;28;20213;-61
2022/10/02 06:14:53;;;;;;;7.77;2.87;;;15.90;99.90;;;;;;5031886;28;20237;-61
2022/10/02 06:17:25;;;;;;;6.07;1.90;;;16.00;99.90;;;;;;5031960;28;20202;-61
2022/10/02 06:19:57;;;;;;;6.80;2.23;;;16.00;99.90;;;;;;5031934;28;20206;-60
2022/10/02 06:22:28;;;;;;;6.93;2.20;;;16.00;99.90;;;;;;5031434;28;20194;-61
2022/10/02 06:24:59;;;;;;;5.40;1.67;;;16.00;99.90;;;;;;5031882;28;20230;-61
2022/10/02 06:27:33;;;;;;;9.88;1.90;;;16.00;99.90;;;;;;5031664;28;20797;-61
2022/10/02 06:30:03;;;;;;;8.82;3.88;;;16.00;99.90;;;;;;5031776;28;20206;-61
2022/10/02 06:32:37;;;;;;;16.30;4.20;;;16.10;99.90;;;;;;5031192;28;20207;-61
2022/10/02 06:35:10;;;;;;;5.67;2.00;;;16.10;99.90;;;;;;5031816;28;20724;-61
2022/10/02 06:38:01;;;;;;;7.85;2.70;;;16.10;99.90;;;;;;5032064;28;20597;-61
2022/10/02 06:40:50;;;;;;;4.70;2.03;;;16.00;99.90;;;;;;5031789;28;20249;-61
2022/10/02 06:43:49;;;;;;;10.63;4.13;;;15.90;99.90;;;;;;5031545;28;20209;-60
2022/10/02 06:46:27;;;;;;;7.17;3.40;;;16.00;99.90;;;;;;5019767;28;20209;-61
2022/10/02 06:49:00;;;;;;;11.53;6.53;;;16.00;99.90;;;;;;5032021;28;20226;-61
2022/10/02 06:51:37;;;;;;;6.70;2.13;;;16.10;99.90;;;;;;5031417;28;20194;-61
2022/10/02 06:54:19;;;;;;;5.50;1.87;;;16.10;99.90;;;;;;5035883;28;20230;-61
2022/10/02 06:57:04;;;;;;;4.70;1.98;;;16.20;99.90;;;;;;5035683;28;20272;-61
2022/10/02 06:59:52;;;;;;;6.60;2.10;;;16.30;99.90;;;;;;5035486;28;20697;-61
2022/10/02 07:02:33;;;;;;;21.50;11.30;;;16.30;99.90;;;;;;5035297;28;20237;-60
2022/10/02 07:05:38;;;;;;;4.67;2.37;;;16.40;99.90;;;;;;5036222;28;20226;-61
2022/10/02 07:08:11;;;;;;;6.07;2.30;;;16.40;99.90;;;;;;5035810;28;20230;-60
2022/10/02 07:10:46;;;;;;;5.70;2.20;;;16.30;99.90;;;;;;5035887;28;20233;-60
2022/10/02 07:13:31;;;;;;;6.88;2.03;;;16.40;99.90;;;;;;5035007;28;20209;-60
2022/10/02 07:16:29;;;;;;;6.93;2.13;;;16.40;99.90;;;;;;5036696;28;20214;-59
2022/10/02 07:19:22;;;;;;;7.93;2.00;;;16.40;99.90;;;;;;5036069;28;20582;-59
2022/10/02 07:22:00;;;;;;;4.40;2.05;;;16.40;99.90;;;;;;5022365;28;20233;-59
2022/10/02 07:24:57;;;;;;;6.30;2.27;;;16.40;99.90;;;;;;5035974;28;20237;-59
2022/10/02 07:27:28;;;;;;;4.78;2.22;;;16.40;99.90;;;;;;5035183;28;20217;-61
2022/10/02 07:30:01;;;;;;;7.63;2.83;;;16.30;99.90;;;;;;5035018;28;20234;-58
2022/10/02 07:32:46;;;;;;;4.57;2.00;;;16.30;99.90;;;;;;5034632;28;20221;-58
2022/10/02 07:35:29;;;;;;;7.95;4.78;;;16.40;99.90;;;;;;5035049;28;20225;-58
2022/10/02 07:38:21;;;;;;;5.63;2.50;;;16.40;99.90;;;;;;5034937;28;20225;-58
2022/10/02 07:40:59;;;;;;;6.95;2.67;;;16.40;99.90;;;;;;5024642;28;20213;-58
2022/10/02 07:43:48;;;;;;;5.30;3.10;;;16.50;99.90;;;;;;5034003;28;20245;-57
2022/10/02 07:46:24;;;;;;;6.88;2.33;;;16.40;99.90;;;;;;5034771;28;20685;-57
2022/10/02 07:49:02;;;;;;;5.95;1.90;;;16.50;99.90;;;;;;5035061;28;20222;-59
2022/10/02 07:51:49;;;;;;;4.25;2.25;;;16.50;99.90;;;;;;5034026;28;20291;-58
2022/10/02 07:54:38;;;;;;;6.10;2.60;;;16.40;99.90;;;;;;5034547;28;20234;-58
2022/10/02 07:57:35;;;;;;;6.93;2.60;;;16.40;99.90;;;;;;5034570;28;20214;-58
2022/10/02 08:00:06;;;;;;;5.03;2.30;;;16.30;99.90;;;;;;5034433;28;20213;-58
2022/10/02 08:02:38;;;;;;;4.50;2.37;;;16.30;99.90;;;;;;5033646;28;20666;-58
2022/10/02 08:05:17;;;;;;;5.67;2.27;;;16.30;99.90;;;;;;5033457;28;20597;-58
2022/10/02 08:07:49;;;;;;;7.87;3.37;;;16.30;99.90;;;;;;5034403;28;20210;-59
2022/10/02 08:10:20;;;;;;;5.17;2.43;;;16.30;99.90;;;;;;5034196;28;20222;-59
2022/10/02 08:12:52;;;;;;;5.37;2.30;;;16.30;99.90;;;;;;5033488;28;20602;-58
2022/10/02 08:15:22;;;;;;;4.90;2.20;;;16.30;99.90;;;;;;5034150;28;20242;-58
2022/10/02 08:17:52;;;;;;;4.25;2.63;;;16.40;99.90;;;;;;5034269;28;20628;-58
2022/10/02 08:20:27;;;;;;;4.93;2.65;;;16.30;99.90;;;;;;5034075;28;20570;-58
2022/10/02 08:23:00;;;;;;;5.13;2.70;;;16.40;99.90;;;;;;5033448;28;20301;-58
2022/10/02 08:25:31;;;;;;;8.88;3.72;;;16.30;99.90;;;;;;5033834;28;20230;-58
2022/10/02 08:28:04;;;;;;;6.82;3.78;;;16.30;99.90;;;;;;5034674;28;20210;-59
2022/10/02 08:30:30;;;;;;;5.35;2.20;;;16.30;99.90;;;;;;5034063;28;20245;-59
2022/10/02 08:32:58;;;;;;;3.33;1.97;;;16.20;99.90;;;;;;5033354;28;20213;-58
2022/10/02 08:35:34;;;;;;;4.72;1.70;;;16.20;99.90;;;;;;5033936;28;20230;-58
2022/10/02 08:38:13;;;;;;;7.55;2.58;;;16.30;99.90;;;;;;5033786;28;20213;-58
2022/10/02 08:41:15;;;;;;;4.72;2.63;;;16.40;99.90;;;;;;5033852;28;20205;-59
2022/10/02 08:44:09;;;;;;;7.53;4.70;;;16.50;99.90;;;;;;5032898;28;20262;-58
2022/10/02 08:47:08;;;;;;;4.47;2.00;;;16.60;99.90;;;;;;5033611;28;20217;-59
2022/10/02 08:50:00;;;;;;;4.20;1.65;;;16.70;99.90;;;;;;5003102;28;20230;-58
2022/10/02 08:53:08;;;;;;;2.28;1.58;;;16.70;99.90;;;;;;5030241;28;20221;-57
2022/10/02 08:56:03;;;;;;;6.88;3.80;;;16.60;99.90;;;;;;5033324;28;20636;-59
2022/10/02 08:58:59;;;;;;;4.60;2.83;;;16.60;99.90;;;;;;5020743;28;20206;-59
2022/10/02 09:01:46;;;;;;;4.95;2.42;;;16.80;99.90;;;;;;5033342;28;20210;-59
2022/10/02 09:04:51;;;;;;;6.00;3.17;;;17.00;99.90;;;;;;5033461;28;20237;-58
2022/10/02 09:07:53;;;;;;;5.20;2.22;;;17.20;99.90;;;;;;5033453;28;20205;-58
2022/10/02 09:10:48;;;;;;;5.00;1.77;;;17.60;99.90;;;;;;5033204;28;20556;-59
2022/10/02 09:13:46;;;;;;;3.53;1.83;;;17.90;99.90;;;;;;5024616;28;20441;-59
2022/10/02 09:16:26;;;;;;;5.80;4.75;;;18.10;99.90;;;;;;5031539;28;20209;-59
2022/10/02 09:19:01;;;;;;;5.80;4.30;;;18.20;99.90;;;;;;5031890;28;20209;-64
2022/10/02 09:21:49;;;;;;;3.05;1.77;;;18.40;99.90;;;;;;5031730;28;20279;-62
2022/10/02 09:24:52;;;;;;;3.30;1.35;;;18.40;99.90;;;;;;5030278;28;20230;-63
2022/10/02 09:27:47;;;;;;;1.65;1.00;;;18.10;99.90;;;;;;5026858;28;20206;-62
2022/10/02 09:30:34;;;;;;;3.47;1.48;;;17.40;99.90;;;;;;5010901;28;20249;-62
2022/10/02 09:33:34;;;;;;;3.92;1.52;;;16.90;99.90;;;;;;5007442;28;20236;-63
2022/10/02 09:36:31;;;;;;;2.72;1.27;;;16.60;99.90;;;;;;4989771;28;20672;-63
2022/10/02 09:39:37;;;;;;;2.78;1.02;;;16.30;99.90;;;;;;5011623;28;20517;-59
2022/10/02 09:42:41;;;;;;;3.30;1.27;;;16.10;99.90;;;;;;5009566;28;20214;-60
2022/10/02 09:46:01;;;;;;;4.90;1.30;;;15.90;99.90;;;;;;5008140;28;20227;-59
2022/10/02 09:49:18;;;;;;;2.53;1.40;;;15.90;99.90;;;;;;5010101;28;20210;-62
2022/10/02 09:52:18;;;;;;;3.40;1.37;;;15.80;99.90;;;;;;5008771;28;20563;-60
2022/10/02 09:55:26;;;;;;;1.87;1.23;;;15.80;99.90;;;;;;5005889;28;20227;-62
2022/10/02 09:58:29;;;;;;;1.80;1.23;;;16.00;99.90;;;;;;5011802;28;20203;-60
2022/10/02 10:01:31;;;;;;;2.17;0.90;;;16.10;99.90;;;;;;5006530;28;20218;-60
2022/10/02 10:04:25;;;;;;;1.57;1.00;;;16.10;99.90;;;;;;5004414;28;20222;-60
2022/10/02 10:07:12;;;;;;;1.50;0.80;;;16.00;99.90;;;;;;5010819;28;20210;-62
2022/10/02 10:10:05;;;;;;;48.55;43.30;;;16.10;99.90;;;;;;5009723;28;20234;-60
2022/10/02 10:13:00;;;;;;;3.92;2.97;;;16.20;99.90;;;;;;5011035;28;20219;-60
2022/10/02 10:16:00;;;;;;;3.13;2.25;;;16.30;99.90;;;;;;5009516;28;20419;-62
2022/10/02 10:18:53;;;;;;;1.73;1.23;;;16.40;99.90;;;;;;5009848;28;20265;-61
2022/10/02 10:22:05;;;;;;;1.17;1.00;;;16.80;99.90;;;;;;5009589;28;20206;-63
2022/10/02 10:25:09;;;;;;;2.63;1.17;;;17.00;99.90;;;;;;5011233;28;20229;-58
2022/10/02 10:27:57;;;;;;;1.42;1.10;;;16.80;99.90;;;;;;4986266;28;20714;-61
2022/10/02 10:31:01;;;;;;;1.45;1.00;;;16.80;99.90;;;;;;4967928;28;20337;-62
2022/10/02 10:34:13;;;;;;;3.00;0.70;;;16.90;99.90;;;;;;5009709;28;20210;-62
2022/10/02 10:40:37;;;;;;;1.40;0.80;;;17.50;99.90;;;;;;4948345;29;20204;-61
2022/10/02 10:43:36;;;;;;;0.88;0.70;;;17.90;99.90;;;;;;4931454;29;20205;-62
2022/10/02 10:46:27;;;;;;;0.70;0.50;;;18.00;99.90;;;;;;5007308;28;20281;-62
2022/10/02 10:49:10;;;;;;;1.77;1.50;;;17.90;99.90;;;;;;5009544;28;20225;-61
2022/10/02 10:51:46;;;;;;;0.82;0.65;;;17.50;99.90;;;;;;5009197;28;20292;-61
2022/10/02 10:54:56;;;;;;;1.00;0.50;;;17.30;99.90;;;;;;5009296;28;20249;-57
2022/10/02 10:57:40;;;;;;;0.82;0.32;;;17.20;99.90;;;;;;4989440;28;20211;-59
2022/10/02 11:00:23;;;;;;;1.27;0.80;;;17.00;99.90;;;;;;5011028;28;20230;-61
2022/10/02 11:03:01;;;;;;;2.13;1.00;;;17.00;99.90;;;;;;5010276;28;20210;-62
2022/10/02 11:06:18;;;;;;;0.85;0.65;;;17.20;99.90;;;;;;5009180;28;20252;-62
2022/10/02 11:09:10;;;;;;;1.02;0.50;;;17.60;99.90;;;;;;5010884;28;20223;-61
2022/10/02 11:11:44;;;;;;;0.80;0.47;;;17.80;99.90;;;;;;5010751;28;20203;-63
2022/10/02 11:14:28;;;;;;;1.08;0.40;;;17.60;99.90;;;;;;5010530;28;20258;-63
2022/10/02 11:17:30;;;;;;;2.60;1.38;;;17.50;99.90;;;;;;5010466;28;20218;-65
2022/10/02 11:20:18;;;;;;;1.85;1.00;;;17.40;99.90;;;;;;5010600;28;20203;-62
2022/10/02 11:23:04;;;;;;;3.45;0.77;;;17.60;99.90;;;;;;5009968;28;20207;-65
2022/10/02 11:25:54;;;;;;;9.77;7.65;;;17.60;99.90;;;;;;5010729;28;20234;-64
2022/10/02 11:28:47;;;;;;;1.23;0.98;;;17.70;99.90;;;;;;5011835;28;20218;-63
2022/10/02 11:31:30;;;;;;;1.88;1.40;;;17.70;99.90;;;;;;5011801;28;20223;-60
2022/10/02 11:34:34;;;;;;;3.22;2.45;;;17.80;99.90;;;;;;5011088;28;20273;-60
2022/10/02 11:37:14;;;;;;;0.50;0.50;;;17.70;99.90;;;;;;4992458;28;20214;-61
2022/10/02 11:40:16;;;;;;;0.60;0.60;;;17.70;99.90;;;;;;5015057;28;20202;-59
2022/10/02 11:43:10;;;;;;;0.60;0.40;;;18.00;99.90;;;;;;5014317;28;20207;-59
2022/10/02 11:46:24;;;;;;;0.35;0.35;;;18.30;99.90;;;;;;5015344;28;20269;-59
2022/10/02 11:49:25;;;;;;;1.30;0.90;;;18.40;99.90;;;;;;4935180;29;20269;-58
2022/10/02 11:52:10;;;;;;;1.10;1.00;;;18.20;99.90;;;;;;5014684;28;20242;-59
2022/10/02 11:55:13;;;;;;;1.65;1.13;;;18.20;99.90;;;;;;5015019;28;20226;-62
2022/10/02 11:57:50;;;;;;;1.30;0.90;;;18.10;99.90;;;;;;5001501;28;20679;-60
2022/10/02 12:00:52;;;;;;;0.40;0.38;;;17.90;99.90;;;;;;5015170;28;20213;-60
2022/10/02 12:03:29;;;;;;;0.75;0.52;;;17.90;99.90;;;;;;5014098;28;20580;-61
2022/10/02 12:06:06;;;;;;;0.73;0.65;;;17.90;99.90;;;;;;5014762;28;20268;-60
2022/10/02 12:08:48;;;;;;;1.73;0.50;;;17.90;99.90;;;;;;5014753;28;20218;-60
2022/10/02 12:11:24;;;;;;;0.65;0.50;;;18.00;99.90;;;;;;5014772;28;20226;-60
2022/10/02 12:14:04;;;;;;;0.60;0.50;;;18.00;99.90;;;;;;5013863;28;20231;-60
2022/10/02 12:16:47;;;;;;;0.40;0.30;;;17.90;99.90;;;;;;5014459;28;20684;-60
2022/10/02 12:19:26;;;;;;;1.00;0.50;;;17.80;99.90;;;;;;5014466;28;20580;-62
2022/10/02 12:27:57;;;;;;;1.27;0.95;;;17.80;99.90;;;;;;5014573;28;20206;-58
2022/10/02 12:30:34;;;;;;;1.35;0.90;;;18.10;99.90;;;;;;5014151;28;20698;-58
2022/10/02 12:33:22;;;;;;;1.48;0.88;;;18.20;99.90;;;;;;5013523;28;20210;-59
2022/10/02 12:36:32;;;;;;;4.00;2.88;;;18.30;99.90;;;;;;5014563;28;20206;-60
2022/10/02 12:39:11;;;;;;;2.28;1.20;;;18.30;99.90;;;;;;4934540;29;20214;-60
2022/10/02 12:42:04;;;;;;;0.88;0.60;;;18.50;99.90;;;;;;5009928;28;20206;-60
2022/10/02 12:44:55;;;;;;;0.40;0.40;;;18.60;99.90;;;;;;5013543;28;20227;-59
2022/10/02 12:47:49;;;;;;;1.58;0.73;;;18.50;99.90;;;;;;5013949;28;20203;-60
2022/10/02 12:50:28;;;;;;;0.75;0.70;;;18.10;99.90;;;;;;5013544;28;20233;-60
2022/10/02 12:53:22;;;;;;;0.70;0.52;;;17.90;99.90;;;;;;5013428;28;20210;-60
2022/10/02 12:56:38;;;;;;;2.00;0.80;;;17.90;99.90;;;;;;5013743;28;20210;-59
2022/10/02 12:59:13;;;;;;;0.50;0.50;;;18.00;99.90;;;;;;5013883;28;20222;-60
2022/10/02 13:02:25;;;;;;;1.27;0.52;;;18.00;99.90;;;;;;5013757;28;20206;-62
2022/10/02 13:05:39;;;;;;;1.67;1.08;;;17.80;99.90;;;;;;5008066;28;20231;-59
2022/10/02 13:08:24;;;;;;;1.30;1.00;;;17.80;99.90;;;;;;5013826;28;20221;-59
2022/10/02 13:11:01;;;;;;;0.73;0.43;;;17.90;99.90;;;;;;5013635;28;20243;-59
2022/10/02 13:13:51;;;;;;;2.05;1.67;;;17.90;99.90;;;;;;5012797;28;20203;-60
2022/10/02 13:16:27;;;;;;;2.47;2.20;;;17.70;99.90;;;;;;5064510;22;20226;-61
2022/10/02 13:19:08;;;;;;;0.63;0.40;;;17.70;99.90;;;;;;5053624;28;20582;-61
2022/10/02 13:21:46;;;;;;;0.32;0.22;;;17.60;99.90;;;;;;5054220;28;20201;-60
2022/10/02 13:24:27;;;;;;;0.55;0.55;;;17.40;99.90;;;;;;5053670;28;20210;-60
2022/10/02 13:27:03;;;;;;;1.65;0.32;;;17.20;99.90;;;;;;5054088;28;20206;-61
2022/10/02 13:29:47;;;;;;;0.57;0.22;;;17.30;99.90;;;;;;5053856;28;20236;-61
2022/10/02 13:32:40;;;;;;;1.10;0.50;;;17.40;99.90;;;;;;5053330;28;20289;-61
2022/10/02 13:35:31;;;;;;;1.10;0.90;;;17.50;99.90;;;;;;5053417;28;20728;-60
2022/10/02 13:38:16;;;;;;;0.45;0.28;;;17.80;99.90;;;;;;5053491;28;20662;-60
2022/10/02 13:40:49;;;;;;;0.40;0.30;;;17.80;99.90;;;;;;5053758;28;20205;-60
2022/10/02 13:43:41;;;;;;;0.40;0.40;;;17.70;99.90;;;;;;5053004;28;20208;-60
2022/10/02 13:46:21;;;;;;;1.88;0.40;;;17.60;99.90;;;;;;5053039;28;20232;-61
2022/10/02 13:49:02;;;;;;;0.50;0.50;;;17.70;99.90;;;;;;5053601;28;20212;-61
2022/10/02 13:51:40;;;;;;;3.13;0.55;;;17.90;99.90;;;;;;5053463;28;20239;-60
2022/10/02 13:54:38;;;;;;;0.50;0.50;;;18.00;99.90;;;;;;5052320;28;20209;-60
2022/10/02 13:57:18;;;;;;;2.50;0.60;;;17.90;99.90;;;;;;5053328;28;20240;-61
2022/10/02 14:00:00;;;;;;;0.38;0.30;;;17.90;99.90;;;;;;5053185;28;20688;-60
2022/10/02 14:02:43;;;;;;;0.40;0.35;;;17.90;99.90;;;;;;5051732;28;20212;-61
2022/10/02 14:05:20;;;;;;;0.57;0.52;;;17.70;99.90;;;;;;5053097;28;20696;-60
2022/10/02 14:08:05;;;;;;;0.80;0.45;;;17.50;99.90;;;;;;5053324;28;20588;-60
2022/10/02 14:10:49;;;;;;;3.85;3.50;;;17.40;99.90;;;;;;5052949;28;20317;-60